• Join FlightAware (Why Join?)
  • Login
  • US Flag 
12:10PM EDT


 

Airport Tracker/Info


-or-


 

Live Flight TrackerFlight Track Log ✈ UCA596 ✈ 04-Sep-2013 ✈ KIAD - KBGM

Flight Track Log - Related Links

Times and Time Zones

All times are in EDT time to prevent confusion due to time zone crossing. See the UCA596 flight status page for this flight to view local times or setup timezone preferences in your user account.

Time Position Orientation Groundspeed Altitude Reporting Facility
EDT Latitude Longitude Course Direction KTS MPH feet Rate Location/Type
01:05PM 38.9667 -77.5000 322° Northwest 153 176 2,400  Level Potomac TRACON
01:06PM 39.0000 -77.5333 322° Northwest 173 199 4,000 1,680 Climbing Potomac TRACON
01:07PM 39.0500 -77.5667 333° Northwest 177 204 5,600 1,620 Climbing Potomac TRACON
01:08PM 39.0833 -77.6000 322° Northwest 179 206 7,300 1,680 Climbing Potomac TRACON
01:09PM 39.1333 -77.6333 333° Northwest 180 207 9,000 1,560 Climbing Potomac TRACON
01:10PM 39.1833 -77.6667 333° Northwest 183 211 10,500 1,320 Climbing Potomac TRACON
01:11PM 39.2333 -77.6833 346° North 205 236 11,700 1,200 Climbing Potomac TRACON
01:12PM 39.2833 -77.6500 27° Northeast 219 252 12,900 1,200 Climbing Potomac TRACON
01:13PM 39.3333 -77.6167 27° Northeast 218 251 14,000 1,200 Climbing Potomac TRACON
01:14PM 39.4056 -77.5792 22° Northeast 219 252 15,900 1,200 Climbing Washington Center
01:15PM 39.4603 -77.5511 22° Northeast 214 246 17,000 960 Climbing Washington Center
01:16PM 39.5169 -77.5231 21° North 214 246 17,900 300 Climbing Washington Center
01:19PM 39.6642 -77.4433 23° Northeast 265 305 18,000 180 Climbing New York Center
01:20PM 39.7411 -77.4075 20° North 266 306 18,500 480 Climbing New York Center
01:21PM 39.7992 -77.3778 21° North 253 291 19,000 240 Climbing New York Center
01:22PM 39.8744 -77.3389 22° Northeast 253 291 19,000  Level New York Center
01:23PM 39.9344 -77.3094 21° North 258 297 19,000  Level New York Center
01:24PM 40.0094 -77.2703 22° Northeast 258 297 19,000  Level New York Center
01:25PM 40.0717 -77.2408 20° North 258 297 19,000  Level New York Center
01:26PM 40.1489 -77.1992 22° Northeast 258 297 19,000  Level New York Center
01:27PM 40.2111 -77.1694 20° North 258 297 19,000  Level New York Center
01:28PM 40.2861 -77.1300 22° Northeast 258 297 19,000  Level New York Center
01:29PM 40.3503 -77.1006 19° North 258 297 19,000  Level New York Center
01:30PM 40.4275 -77.0614 21° North 258 297 19,000  Level New York Center
01:31PM 40.4961 -77.0239 23° Northeast 258 297 19,000 -240 Level New York Center
01:32PM 40.5647 -76.9864 23° Northeast 258 297 18,600 -480 Descending New York Center
01:33PM 40.6356 -76.9489 22° Northeast 258 297 18,100 -480 Descending New York Center
01:34PM 40.7103 -76.9119 21° North 270 311 17,700 -480 Descending New York Center
01:35PM 40.7853 -76.8722 22° Northeast 279 321 17,200 -540 Descending New York Center
01:36PM 40.8603 -76.8347 21° North 279 321 16,700 -540 Descending New York Center
01:37PM 40.9372 -76.7950 21° North 279 321 16,200 -540 Descending New York Center
01:38PM 41.0017 -76.7594 23° Northeast 279 321 15,700 -540 Descending New York Center
01:39PM 41.0767 -76.7192 22° Northeast 279 321 15,200 -360 Descending New York Center
01:40PM 41.1514 -76.6817 21° North 279 321 15,000 -120 Descending New York Center
01:41PM 41.2242 -76.6411 23° Northeast 279 321 15,000  Level New York Center
01:42PM 41.2992 -76.6008 22° Northeast 279 321 15,000  Level New York Center
01:43PM 41.3697 -76.5625 22° Northeast 279 321 15,000  Level New York Center
01:44PM 41.4403 -76.5244 22° Northeast 279 321 15,000  Level New York Center
01:45PM 41.5044 -76.4883 23° Northeast 279 321 15,000  Level New York Center
01:46PM 41.5750 -76.4528 21° North 279 321 15,000  Level New York Center
01:47PM 41.6519 -76.4094 23° Northeast 279 321 15,000 -900 Level New York Center
01:48PM 41.7267 -76.3711 21° North 279 321 13,300 -1,800 Descending New York Center
01:49PM 41.7961 -76.3158 31° Northeast 284 327 11,500 -1,800 Descending New York Center
01:50PM 41.8525 -76.2675 33° Northeast 278 320 9,800 -1,740 Descending New York Center
01:51PM 41.9192 -76.2175 29° Northeast 278 320 8,100 -1,920 Descending New York Center
01:52PM 41.9864 -76.1614 32° Northeast 267 307 6,000 -1,920 Descending New York Center
01:53PM 42.0408 -76.1044 38° Northeast 256 295 4,300 -1,200 Descending New York Center
01:54PM 42.0772 -76.0347 55° Northeast 240 276 3,700 -360 Descending New York Center
01:55PM 42.1131 -75.9789 49° Northeast 217 250 3,600 -540 Descending New York Center
01:56PM 42.1517 -75.9542 25° Northeast 173 199 2,700 -780 Descending New York Center
01:57PM 42.1808 -75.9564 357° North 127 146 2,100 3,120 Descending New York Center
01:58PM 42.2208 -75.9456 11° North 127 146 9,000 3,420 Climbing New York Center
01:59PM 42.2586 -75.9344 12° North 127 146 9,000  Level New York Center
02:00PM 42.2944 -75.9233 13° North 127 146 9,000  Level New York Center
02:01PM 42.3242 -75.9144 12° North 127 146 9,000  Level New York Center
02:02PM 42.3242 -75.9144 225° Southwest 127 146 9,000  Level New York Center